GCRRGMAT

Guest
Details From GCRR - Lanzarote
To GMAT - PLAGE BLANCHE
Flight Number -
Tags generated
Created
Modified
Stats Distance 133 nm / 246 km
Max Altitude 13,800 ft / 4,206 m
Waypoints 3
Social Downloads 1
Likes 0
Share VATSIM

Download

Looking for another format? Having issues loading an existing format? Contact us
Advertisement - Login to hide

Notes

Basic altitude profile: - Ascent Rate: 2500ft/min - Ascent Speed: 250kts - Cruise Altitude: 35000ft - Cruise Speed: 420kts - Descent Rate: 1500ft/min - Descent Speed: 250kts Options: - Use NATs: yes - Use PACOTS: yes - Use low airways: yes - Use high airways: yes

Route

GCRR RUSIK GMAT

ID Type Via Altitude Latitude Longitude Leg Dist Tot Dist Heading (true) Name
O GCRR APT - 0 ft / 0 m 28.94547˚ -13.60522˚ - 0 nm - Lanzarote
RUSIK FIX - 13,800 ft / 4,206 m 28.90611˚ -12.81639˚ 41 nm 41 nm 93° / 93° -
O GMAT APT - 0 ft / 0 m 28.44821˚ -11.16135˚ 91 nm 132 nm 107° / 108° PLAGE BLANCHE

Altitude Profile

Advertisement - Login to hide

GCRR

Details ICAO GCRR (ACE)
Name Lanzarote
Region Canary Islands
Timezone Atlantic/Canary (UTC+1.0)
Stats Elevation 0 ft / 0 m (AMSL)
Location 28.945466° -13.605223°
Runways 1
Magnetic Variation 3.926° W

METAR

GCRR 231900Z 33013KT 9999 FEW047 20/12 Q1017

Decode

TAF

TAF AMD GCRR 231611Z 2316/2415 03015KT 9999 FEW030 TX23/2414Z TN17/2405Z BECMG 2319/2320 32005KT BECMG 2410/2412 04015KT PROB30 TEMPO 2316/2319 30012G22KT PROB30 TEMPO 2412/2415 30015G25KT

Decode

Departure Runways

ID Width Length Bearing (true) Bearing (mag) Surface Threshold Offset Overrun Length
03 148 ft / 45 m 7,893 ft / 2,406 m 26.90° 30.83° Asphalt 197 ft / 60 m 197 ft / 60 m
21 148 ft / 45 m 7,893 ft / 2,406 m 206.91° 210.84° Asphalt 197 ft / 60 m 197 ft / 60 m

GMAT

Details ICAO GMAT (TTA)
Name PLAGE BLANCHE
Region Morocco
Timezone Africa/Casablanca (UTC+0.0)
Stats Elevation 653 ft / 199 m (AMSL)
Location 28.448206° -11.161350°
Runways 1
Magnetic Variation 3.107° W

METAR

GMAT 231800Z 33015KT 9999 SCT013 SCT016 19/14 Q1016 NOSIG

Decode

TAF

Not found

Destination Runways

ID Width Length Bearing (true) Bearing (mag) Surface Threshold Offset Overrun Length
03 98 ft / 30 m 6,585 ft / 2,007 m 27.69° 30.80° Asphalt 0 ft / 0 m 0 ft / 0 m
21 98 ft / 30 m 6,585 ft / 2,007 m 207.70° 210.81° Asphalt 0 ft / 0 m 0 ft / 0 m

Popular Alternatives